Time;durP1;ratioP1;P1;durP2;ratioP2;P2;SDS_P1;SDS_P2;PMS_P1;PMS_P2;Temp;Humidity;BMP_temperature;BMP_pressure;BME280_temperature;BME280_humidity;BME280_pressure;Samples;Min_cycle;Max_cycle;Signal;HPM_P1;HPM_P2
2023/01/18 00:01:57;;;;;;;37.58;23.13;;;;;;;0.02;89.92;147333.53;5085152;28;20036;-65
2023/01/18 00:04:23;;;;;;;42.75;22.27;;;;;;;0.16;89.61;147367.88;5084889;28;20035;-66
2023/01/18 00:06:48;;;;;;;36.75;23.55;;;;;;;0.22;90.12;147381.84;5084496;28;20020;-66
2023/01/18 00:09:14;;;;;;;36.17;23.15;;;;;;;0.28;89.73;147398.34;5085754;28;20351;-66
2023/01/18 00:11:39;;;;;;;39.08;24.55;;;;;;;0.22;89.53;147381.84;5084939;28;20035;-65
2023/01/18 00:14:06;;;;;;;38.60;24.02;;;;;;;0.17;90.01;147370.38;5085448;28;20025;-66
2023/01/18 00:16:31;;;;;;;40.15;25.20;;;;;;;0.28;90.20;147397.09;5064758;28;20212;-66
2023/01/18 00:18:58;;;;;;;37.20;24.83;;;;;;;0.27;89.36;147394.53;5080078;28;20025;-65
2023/01/18 00:21:25;;;;;;;39.17;22.30;;;;;;;0.13;89.83;147361.50;5074043;28;20036;-66
2023/01/18 00:23:51;;;;;;;39.28;23.83;;;;;;;0.30;89.41;147402.16;5065057;28;20103;-65
2023/01/18 00:26:17;;;;;;;37.95;23.90;;;;;;;0.24;89.75;147386.91;5065930;28;20028;-66
2023/01/18 00:28:43;;;;;;;37.25;20.30;;;;;;;0.03;89.75;147336.06;5071623;28;20062;-65
2023/01/18 00:31:14;;;;;;;40.47;23.15;;;;;;;0.15;89.77;147366.56;5079227;28;20328;-66
2023/01/18 00:33:44;;;;;;;38.05;22.73;;;;;;;0.23;89.75;147385.66;5084809;28;20028;-66
2023/01/18 00:36:10;;;;;;;38.15;23.17;;;;;;;0.19;90.09;147375.47;5080599;28;20031;-65
2023/01/18 00:38:36;;;;;;;39.08;24.65;;;;;;;0.22;90.35;147381.84;5084526;28;20037;-66
2023/01/18 00:41:01;;;;;;;44.38;24.48;;;;;;;0.37;89.71;147420.00;5074470;28;20032;-67
2023/01/18 00:43:39;;;;;;;39.55;23.55;;;;;;;0.14;90.02;147364.06;5083408;28;20048;-65
2023/01/18 00:46:23;;;;;;;40.22;23.58;;;;;;;0.04;90.87;147337.34;5084508;28;20040;-65
2023/01/18 00:48:50;;;;;;;40.83;23.65;;;;;;;0.18;90.17;147372.94;5085154;28;20036;-66
2023/01/18 00:51:19;;;;;;;38.80;22.73;;;;;;;0.04;90.20;147337.34;5082504;28;20036;-66
2023/01/18 00:53:45;;;;;;;40.78;23.30;;;;;;;0.32;90.23;147407.28;5080043;28;20033;-66
2023/01/18 00:56:13;;;;;;;39.95;22.60;;;;;;;0.15;90.84;147365.31;5076643;28;20387;-66
2023/01/18 00:58:39;;;;;;;35.05;24.48;;;;;;;0.30;90.81;147402.16;5064911;28;20035;-66
2023/01/18 01:01:06;;;;;;;42.30;24.85;;;;;;;0.15;90.38;147365.31;5080704;28;20028;-68
2023/01/18 01:06:43;;;;;;;38.10;23.27;;;;;;;0.13;90.79;147361.50;5073352;28;20036;-66
2023/01/18 01:06:45;;;;;;;40.33;23.08;;;;;;;0.16;90.56;147369.13;5074107;28;20094;-66
2023/01/18 01:09:15;;;;;;;36.95;23.02;;;;;;;0.01;90.96;147330.97;5084618;28;20044;-67
2023/01/18 01:12:31;;;;;;;36.20;22.73;;;;;;;0.20;90.77;147376.75;5084336;28;20028;-65
2023/01/18 01:28:08;;;;;;;34.88;22.98;;;;;;;0.24;91.49;147386.91;5080306;28;20035;-66
2023/01/18 01:30:33;;;;;;;36.75;23.15;;;;;;;0.13;91.48;147360.25;5074829;28;20212;-65
2023/01/18 01:32:59;;;;;;;33.97;22.25;;;;;;;0.22;91.95;147381.84;5084242;28;20093;-65
2023/01/18 01:35:24;;;;;;;39.83;22.85;;;;;;;0.26;91.25;147393.28;5084332;28;20028;-66
2023/01/18 01:37:50;;;;;;;34.70;21.55;;;;;;;0.18;91.09;147372.94;5084220;28;20028;-66
2023/01/18 01:40:16;;;;;;;33.30;21.13;;;;;;;0.11;91.78;147356.38;5083574;28;20198;-64
2023/01/18 01:42:41;;;;;;;34.08;22.27;;;;;;;0.01;92.00;147330.97;5058348;28;20312;-64
2023/01/18 01:45:08;;;;;;;33.90;22.35;;;;;;;0.05;91.61;147341.16;5083923;28;20055;-64
2023/01/18 01:47:38;;;;;;;36.78;20.17;;;;;;;0.04;91.46;147338.59;5083873;28;20028;-64
2023/01/18 01:50:33;;;;;;;31.80;20.73;;;;;;;0.13;91.14;147361.50;5083360;28;20326;-65
2023/01/18 01:53:01;;;;;;;37.72;23.35;;;;;;;0.16;91.96;147369.13;5063027;28;20052;-64
2023/01/18 01:55:36;;;;;;;31.40;21.65;;;;;;;0.28;90.53;147397.09;5082145;28;20223;-64
2023/01/18 01:58:08;;;;;;;31.63;20.70;;;;;;;0.16;90.62;147367.88;5083642;28;20100;-64
2023/01/18 02:00:34;;;;;;;29.15;20.73;;;;;;;0.24;89.95;147386.91;5083440;28;20037;-65
2023/01/18 02:03:05;;;;;;;33.63;20.95;;;;;;;0.10;90.91;147352.56;5083465;28;20025;-64
2023/01/18 02:05:34;;;;;;;34.85;21.42;;;;;;;0.09;91.33;147350.06;5053535;28;20032;-65
2023/01/18 02:08:02;;;;;;;34.88;22.83;;;;;;;0.29;90.75;147399.66;5083581;28;20032;-64
2023/01/18 02:10:29;;;;;;;29.77;21.00;;;;;;;0.46;90.28;147442.88;5083339;28;20100;-64
2023/01/18 02:12:56;;;;;;;34.17;21.95;;;;;;;0.24;90.76;147386.91;5083314;28;20035;-64
2023/01/18 02:15:35;;;;;;;34.75;21.95;;;;;;;0.17;90.74;147371.69;5083352;28;20039;-65
2023/01/18 02:18:22;;;;;;;32.50;21.20;;;;;;;0.31;90.50;147404.72;5083302;28;20028;-65
2023/01/18 02:21:06;;;;;;;32.38;21.38;;;;;;;0.35;90.72;147414.91;5083412;28;20042;-65
2023/01/18 02:23:32;;;;;;;30.88;19.45;;;;;;;0.05;90.43;147341.16;5083961;28;20301;-66
2023/01/18 02:26:37;;;;;;;33.90;20.55;;;;;;;0.15;90.72;147366.56;5083895;28;20114;-65
2023/01/18 02:29:16;;;;;;;33.33;21.30;;;;;;;0.10;91.21;147353.88;5082152;28;20029;-66
2023/01/18 02:31:58;;;;;;;32.35;21.17;;;;;;;0.31;90.56;147404.72;5079649;28;20039;-65
2023/01/18 02:34:44;;;;;;;30.05;20.58;;;;;;;0.21;89.69;147379.28;5083007;28;20095;-64
2023/01/18 02:37:33;;;;;;;30.67;21.33;;;;;;;0.27;89.83;147394.53;5083224;28;20025;-65
2023/01/18 02:40:36;;;;;;;34.25;21.48;;;;;;;0.26;89.81;147392.03;5083136;28;20085;-64
2023/01/18 02:48:41;;;;;;;29.95;19.35;;;;;;;0.15;89.52;147365.31;5082827;28;20040;-64
2023/01/18 02:51:07;;;;;;;33.10;20.60;;;;;;;0.22;88.79;147381.84;5083096;28;20201;-65
2023/01/18 02:53:39;;;;;;;32.60;21.13;;;;;;;0.14;89.41;147364.06;5082923;28;20024;-64
2023/01/18 02:56:13;;;;;;;29.20;19.27;;;;;;;0.21;88.79;147379.28;5083257;28;20078;-64
2023/01/18 02:58:52;;;;;;;34.72;21.05;;;;;;;0.22;88.39;147381.84;5083131;28;20033;-66
2023/01/18 03:01:30;;;;;;;29.67;19.35;;;;;;;0.17;89.02;147370.38;5082824;28;20036;-65
2023/01/18 03:04:24;;;;;;;36.53;21.42;;;;;;;0.15;88.40;147366.56;5082946;28;20032;-66
2023/01/18 03:07:10;;;;;;;33.97;20.80;;;;;;;0.18;87.97;147372.94;5082697;28;20029;-65
2023/01/18 03:09:37;;;;;;;31.38;19.30;;;;;;;0.37;87.47;147418.72;5083174;28;20142;-66
2023/01/18 03:12:23;;;;;;;28.45;19.05;;;;;;;0.26;87.55;147392.03;5083349;28;20031;-66
2023/01/18 03:14:54;;;;;;;29.58;20.02;;;;;;;0.38;87.92;147421.25;5082606;28;20066;-65
2023/01/18 03:17:36;;;;;;;35.00;19.48;;;;;;;0.27;87.85;147394.53;5085425;28;20028;-65
2023/01/18 03:20:09;;;;;;;;;;;;;;;0.33;87.78;147411.09;5087427;28;20261;-65
2023/01/18 03:25:47;;;;;;;29.98;18.85;;;;;;;0.37;87.32;147420.00;5086144;28;20044;-65
2023/01/18 03:34:13;;;;;;;29.58;18.52;;;;;;;0.50;85.72;147451.81;5086334;28;20039;-65
2023/01/18 03:36:47;;;;;;;28.75;18.17;;;;;;;0.25;86.57;147390.72;5086454;28;20101;-68
2023/01/18 03:39:19;;;;;;;30.92;18.65;;;;;;;0.03;86.86;147336.06;5086374;28;20024;-67
2023/01/18 03:41:46;;;;;;;;;;;;;;;0.44;86.18;147437.81;5086833;28;20035;-65
2023/01/18 03:44:29;;;;;;;28.88;17.42;;;;;;;0.43;85.49;147433.94;5086475;28;19979;-64
2023/01/18 03:46:56;;;;;;;25.80;17.85;;;;;;;0.35;85.95;147414.91;5066153;28;20051;-64
2023/01/18 03:49:22;;;;;;;27.30;17.33;;;;;;;0.40;86.20;147427.63;5082961;28;20247;-64
2023/01/18 03:51:59;;;;;;;26.52;17.20;;;;;;;0.29;85.45;147399.66;5086221;28;20029;-64
2023/01/18 03:54:30;;;;;;;27.42;17.40;;;;;;;0.34;86.01;147412.34;5086298;28;20024;-65
2023/01/18 03:57:26;;;;;;;24.45;16.52;;;;;;;0.37;85.74;147420.00;5086303;28;20028;-67
2023/01/18 03:59:52;;;;;;;28.45;17.40;;;;;;;0.30;85.63;147403.47;5081311;28;20347;-65
2023/01/18 04:02:20;;;;;;;25.92;16.88;;;;;;;0.33;84.82;147409.84;5059807;28;20028;-66
2023/01/18 04:04:45;;;;;;;24.25;17.38;;;;;;;0.41;84.69;147430.16;5085746;28;20305;-66
2023/01/18 04:07:11;;;;;;;27.60;16.98;;;;;;;0.36;84.88;147416.16;5085807;28;20047;-66
2023/01/18 04:09:36;;;;;;;25.23;16.20;;;;;;;0.21;85.18;147380.56;5085883;28;20059;-66
2023/01/18 04:12:02;;;;;;;25.65;17.40;;;;;;;0.43;85.56;147435.25;5067221;28;20051;-67
2023/01/18 04:14:27;;;;;;;28.50;17.75;;;;;;;0.50;84.70;147451.81;5085529;28;20029;-68
2023/01/18 04:16:53;;;;;;;26.05;16.13;;;;;;;0.36;84.89;147417.47;5085353;28;20040;-67
2023/01/18 04:19:18;;;;;;;22.98;16.23;;;;;;;0.47;84.56;147445.44;5080180;28;20033;-66
2023/01/18 04:21:44;;;;;;;27.80;17.73;;;;;;;0.36;84.60;147417.47;5076458;28;20380;-67
2023/01/18 04:24:10;;;;;;;24.48;15.48;;;;;;;0.26;84.87;147393.28;5085892;28;20055;-67
2023/01/18 04:26:36;;;;;;;29.63;17.13;;;;;;;0.36;84.78;147416.16;5067637;28;20328;-67
2023/01/18 04:29:02;;;;;;;26.75;16.65;;;;;;;0.20;84.79;147376.75;5085281;28;20020;-67
2023/01/18 04:31:28;;;;;;;24.83;16.85;;;;;;;0.31;84.31;147404.72;5084532;28;20047;-68
2023/01/18 04:33:54;;;;;;;24.50;15.30;;;;;;;0.31;84.42;147406.03;5085662;28;20035;-68
2023/01/18 04:36:21;;;;;;;24.58;16.38;;;;;;;0.34;84.87;147413.66;5067381;28;20055;-67
2023/01/18 04:38:51;;;;;;;24.90;17.10;;;;;;;0.47;85.05;147444.13;5065533;28;20292;-67
2023/01/18 04:41:16;;;;;;;29.20;17.73;;;;;;;0.32;84.60;147408.53;5066676;28;20036;-68
2023/01/18 04:43:42;;;;;;;25.98;17.00;;;;;;;0.45;84.70;147439.06;5084998;28;20112;-68
2023/01/18 04:46:07;;;;;;;27.52;17.75;;;;;;;0.48;84.35;147447.94;5084078;28;20070;-67
2023/01/18 04:48:33;;;;;;;25.23;16.70;;;;;;;0.54;84.19;147461.94;5084947;28;20058;-66
2023/01/18 04:50:59;;;;;;;26.13;14.85;;;;;;;0.32;83.94;147408.53;5083659;28;20074;-66
2023/01/18 04:53:24;;;;;;;29.40;16.60;;;;;;;0.32;85.07;147408.53;5085273;28;20043;-67
2023/01/18 04:55:50;;;;;;;24.15;16.92;;;;;;;0.32;84.98;147407.28;5065003;28;20036;-68
2023/01/18 04:58:15;;;;;;;26.73;16.98;;;;;;;0.38;85.04;147422.53;5074357;28;20056;-69
2023/01/18 05:00:41;;;;;;;25.92;17.08;;;;;;;0.46;84.92;147441.63;5083674;28;20028;-69
2023/01/18 05:03:09;;;;;;;27.33;16.38;;;;;;;0.42;84.85;147431.44;5083542;28;20149;-68
2023/01/18 05:05:34;;;;;;;31.65;17.00;;;;;;;0.51;84.10;147454.31;5080486;28;20036;-68
2023/01/18 05:08:00;;;;;;;29.05;17.40;;;;;;;0.30;84.73;147403.47;5075723;28;20029;-67
2023/01/18 05:10:26;;;;;;;24.90;16.92;;;;;;;0.36;84.74;147417.47;5076050;28;20086;-66
2023/01/18 05:12:51;;;;;;;25.65;16.98;;;;;;;0.40;84.53;147427.63;5081256;28;20036;-67
2023/01/18 05:15:17;;;;;;;27.33;17.33;;;;;;;0.43;84.55;147435.25;5058871;28;20339;-67
2023/01/18 05:17:43;;;;;;;28.52;17.85;;;;;;;0.58;84.42;147472.13;5076065;28;20213;-67
2023/01/18 05:20:10;;;;;;;24.98;17.15;;;;;;;0.38;84.42;147421.25;5083407;28;20316;-67
2023/01/18 05:22:36;;;;;;;27.58;17.27;;;;;;;0.47;84.44;147445.44;5084424;28;20028;-67
2023/01/18 05:25:05;;;;;;;28.13;16.58;;;;;;;0.30;84.61;147402.16;5065680;28;20331;-68
2023/01/18 05:27:30;;;;;;;28.10;17.48;;;;;;;0.34;84.85;147412.34;5083524;28;20070;-67
2023/01/18 05:29:56;;;;;;;26.48;16.70;;;;;;;0.50;84.58;147453.06;5083583;28;20029;-67
2023/01/18 05:32:22;;;;;;;25.73;15.57;;;;;;;0.56;83.99;147467.06;5084734;28;20086;-67
2023/01/18 05:34:47;;;;;;;23.50;16.20;;;;;;;0.57;84.25;147468.31;5084248;28;20317;-67
2023/01/18 05:37:13;;;;;;;27.58;16.20;;;;;;;0.43;83.53;147435.25;5085046;28;20028;-67
2023/01/18 05:39:38;;;;;;;26.10;16.70;;;;;;;0.43;84.12;147435.25;5078850;28;20240;-68
2023/01/18 05:42:04;;;;;;;25.20;17.00;;;;;;;0.46;83.86;147442.88;5084043;28;20209;-68
2023/01/18 05:44:30;;;;;;;27.67;15.98;;;;;;;0.55;83.53;147463.25;5083774;28;20036;-68
2023/01/18 05:46:56;;;;;;;27.77;16.23;;;;;;;0.31;84.05;147404.72;5083890;28;20055;-68
2023/01/18 05:49:22;;;;;;;24.67;15.23;;;;;;;0.30;84.22;147402.16;5083887;28;20044;-67
2023/01/18 05:51:47;;;;;;;25.02;16.25;;;;;;;0.23;83.89;147385.66;5083118;28;20020;-69
2023/01/18 05:54:13;;;;;;;23.95;16.30;;;;;;;0.11;84.35;147355.13;5082618;28;20067;-67
2023/01/18 05:56:39;;;;;;;23.50;14.18;;;;;;;-0.16;84.09;147289.00;5083656;28;20029;-67
2023/01/18 05:59:04;;;;;;;22.67;15.05;;;;;;;-0.03;84.69;147320.78;5083885;28;20047;-67
2023/01/18 06:01:30;;;;;;;28.63;15.85;;;;;;;-0.02;84.26;147323.34;5083645;28;20035;-68
2023/01/18 06:03:56;;;;;;;22.60;15.95;;;;;;;0.00;84.25;147328.47;5083511;28;20028;-68
2023/01/18 06:06:21;;;;;;;22.88;15.57;;;;;;;-0.09;84.72;147306.81;5083878;28;20040;-67
2023/01/18 06:08:47;;;;;;;28.17;16.25;;;;;;;0.02;85.74;147333.53;5082596;28;20087;-68
2023/01/18 06:11:12;;;;;;;30.15;15.93;;;;;;;0.15;84.75;147366.56;5082533;28;20110;-68
2023/01/18 06:13:38;;;;;;;25.88;15.63;;;;;;;0.26;84.29;147392.03;5083168;28;20094;-66
2023/01/18 06:16:04;;;;;;;23.63;14.55;;;;;;;0.17;83.89;147370.38;5081858;28;20049;-66
2023/01/18 06:18:32;;;;;;;30.58;15.90;;;;;;;0.27;83.83;147394.53;5080809;28;20127;-65
2023/01/18 06:20:59;;;;;;;21.48;15.68;;;;;;;-0.08;84.57;147309.38;5069860;28;20355;-67
2023/01/18 06:23:25;;;;;;;22.63;14.98;;;;;;;-0.14;84.13;147294.13;5083640;28;20051;-67
2023/01/18 06:25:51;;;;;;;26.02;15.73;;;;;;;-0.01;84.80;147327.16;5082890;28;20029;-66
2023/01/18 06:28:18;;;;;;;27.23;16.40;;;;;;;0.27;83.57;147395.84;5082970;28;20029;-66
2023/01/18 06:30:46;;;;;;;24.40;14.35;;;;;;;0.26;84.73;147392.03;5082924;28;20271;-66
2023/01/18 06:33:14;;;;;;;29.58;15.43;;;;;;;0.13;83.67;147360.25;5083274;28;20286;-65
2023/01/18 06:35:40;;;;;;;25.02;15.13;;;;;;;0.01;84.99;147329.72;5083499;28;20069;-66
2023/01/18 06:38:06;;;;;;;25.80;16.25;;;;;;;0.04;84.61;147337.34;5083519;28;20035;-68
2023/01/18 06:40:32;;;;;;;30.42;15.60;;;;;;;-0.06;85.07;147314.47;5083162;28;20036;-68
2023/01/18 06:42:58;;;;;;;36.38;15.95;;;;;;;0.09;84.41;147351.31;5083103;28;20060;-66
2023/01/18 06:45:24;;;;;;;25.10;16.45;;;;;;;0.24;84.13;147386.91;5069249;28;20313;-67
2023/01/18 06:47:51;;;;;;;24.25;15.88;;;;;;;0.27;83.85;147394.53;5083042;28;20032;-66
2023/01/18 06:50:17;;;;;;;22.77;16.17;;;;;;;0.38;83.61;147422.53;5084362;28;20032;-67
2023/01/18 06:52:43;;;;;;;25.20;15.73;;;;;;;0.32;84.02;147408.53;5089713;28;20292;-67
2023/01/18 06:55:10;;;;;;;28.30;15.52;;;;;;;0.10;84.31;147353.88;5090147;28;20455;-68
2023/01/18 06:57:36;;;;;;;24.52;15.68;;;;;;;-0.09;84.08;147305.56;5076800;28;20219;-67
2023/01/18 07:00:05;;;;;;;26.50;16.42;;;;;;;0.13;84.79;147360.25;5089733;28;20031;-67
2023/01/18 07:02:34;;;;;;;25.40;16.20;;;;;;;0.15;84.00;147365.31;5083860;28;20208;-67
2023/01/18 07:05:00;;;;;;;25.52;15.73;;;;;;;0.32;83.17;147407.28;5085443;28;20337;-67
2023/01/18 07:07:26;;;;;;;24.00;15.35;;;;;;;0.29;83.14;147399.66;5087945;28;20047;-66
2023/01/18 07:09:52;;;;;;;25.00;14.73;;;;;;;0.04;82.90;147337.34;5086244;28;20033;-68
2023/01/18 07:12:17;;;;;;;24.20;15.50;;;;;;;0.23;83.54;147385.66;5089660;28;20053;-68
2023/01/18 07:14:43;;;;;;;24.58;14.60;;;;;;;0.17;82.91;147370.38;5074183;28;20028;-69
2023/01/18 07:17:09;;;;;;;27.08;15.90;;;;;;;0.22;83.35;147383.09;5088210;28;20028;-68
2023/01/18 07:19:35;;;;;;;23.35;15.57;;;;;;;0.28;82.80;147397.09;5089883;28;20024;-67
2023/01/18 07:22:00;;;;;;;20.25;14.32;;;;;;;0.20;83.11;147378.03;5087635;28;20300;-68
2023/01/18 07:24:27;;;;;;;32.60;15.63;;;;;;;0.10;82.52;147353.88;5086061;28;20032;-66
2023/01/18 07:26:53;;;;;;;23.52;15.50;;;;;;;0.11;83.63;147356.38;5083820;28;20029;-67
2023/01/18 07:29:19;;;;;;;25.25;16.42;;;;;;;-0.08;82.75;147309.38;5069480;28;20033;-67
2023/01/18 07:31:45;;;;;;;23.35;15.65;;;;;;;0.05;83.03;147341.16;5087110;28;20024;-67
2023/01/18 07:34:11;;;;;;;22.92;15.10;;;;;;;-0.01;83.09;147327.16;5082821;28;20344;-68
2023/01/18 07:36:40;;;;;;;26.02;15.30;;;;;;;0.20;83.12;147376.75;5084456;28;20061;-68
2023/01/18 07:39:07;;;;;;;23.65;15.95;;;;;;;0.26;82.21;147393.28;5088849;28;20376;-67
2023/01/18 07:41:33;;;;;;;23.40;15.20;;;;;;;0.32;81.86;147407.28;5088979;28;20358;-69
2023/01/18 07:43:59;;;;;;;28.55;16.30;;;;;;;0.22;82.57;147381.84;5084503;28;20104;-67
2023/01/18 07:46:25;;;;;;;25.85;15.20;;;;;;;0.20;82.23;147378.03;5086973;28;20232;-67
2023/01/18 07:48:51;;;;;;;26.58;15.90;;;;;;;0.25;82.43;147390.72;5088306;28;20040;-67
2023/01/18 07:51:18;;;;;;;29.98;15.55;;;;;;;0.25;82.79;147389.47;5054488;28;20276;-66
2023/01/18 07:53:44;;;;;;;22.80;15.38;;;;;;;0.34;81.72;147413.66;5088892;28;20027;-67
2023/01/18 07:56:16;;;;;;;28.27;16.85;;;;;;;0.23;82.66;147385.66;5088338;28;20103;-67
2023/01/18 07:58:43;;;;;;;23.67;15.85;;;;;;;0.14;82.70;147364.06;5088563;28;20295;-67
2023/01/18 08:01:14;;;;;;;26.17;16.25;;;;;;;0.40;82.53;147427.63;5087743;28;20033;-68
2023/01/18 08:03:41;;;;;;;27.20;16.40;;;;;;;0.28;82.67;147398.34;5085022;28;20024;-66
2023/01/18 08:06:08;;;;;;;29.02;16.33;;;;;;;0.25;82.04;147389.47;5085866;28;20024;-67
2023/01/18 08:08:35;;;;;;;29.10;17.08;;;;;;;0.44;81.48;147436.50;5085714;28;20107;-69
2023/01/18 08:11:02;;;;;;;24.63;15.85;;;;;;;0.30;82.45;147403.47;5085996;28;20029;-68
2023/01/18 08:13:28;;;;;;;27.15;16.15;;;;;;;0.22;83.11;147383.09;5085770;28;20033;-68
2023/01/18 08:15:55;;;;;;;28.58;16.17;;;;;;;0.21;83.07;147380.56;5085509;28;20079;-67
2023/01/18 08:18:20;;;;;;;23.77;15.35;;;;;;;0.20;83.48;147376.75;5085632;28;20020;-69
2023/01/18 08:20:48;;;;;;;27.35;16.42;;;;;;;0.19;82.80;147374.22;5084328;28;20217;-67
2023/01/18 08:23:15;;;;;;;28.10;15.55;;;;;;;0.20;82.98;147378.03;5065675;28;20041;-68
2023/01/18 08:25:41;;;;;;;27.88;16.02;;;;;;;0.28;82.43;147398.34;5078655;28;20028;-67
2023/01/18 08:28:08;;;;;;;26.02;14.95;;;;;;;0.26;82.29;147392.03;5080198;28;20025;-68
2023/01/18 08:30:36;;;;;;;27.02;16.33;;;;;;;0.23;82.09;147384.38;5067390;28;20316;-69
2023/01/18 08:33:03;;;;;;;23.25;16.17;;;;;;;0.38;82.53;147422.53;5066747;28;20367;-67
2023/01/18 08:35:31;;;;;;;23.35;15.48;;;;;;;0.47;81.79;147445.44;5085339;28;20238;-68
2023/01/18 08:37:58;;;;;;;28.83;16.60;;;;;;;0.56;81.21;147465.81;5084586;28;20024;-67
2023/01/18 08:40:25;;;;;;;24.00;16.35;;;;;;;0.62;81.68;147482.31;5084853;28;20044;-68
2023/01/18 08:42:55;;;;;;;27.08;15.20;;;;;;;0.44;81.39;147437.81;5084823;28;20212;-66
2023/01/18 08:45:20;;;;;;;24.58;15.52;;;;;;;0.50;81.55;147453.06;5085369;28;20036;-67
2023/01/18 08:47:46;;;;;;;26.25;15.85;;;;;;;0.34;81.89;147412.34;5085049;28;20070;-68
2023/01/18 08:50:12;;;;;;;23.98;15.18;;;;;;;0.25;82.43;147390.72;5085299;28;20190;-68
2023/01/18 08:52:37;;;;;;;23.67;14.82;;;;;;;0.55;82.00;147464.50;5084551;28;20020;-68
2023/01/18 08:55:04;;;;;;;26.55;15.90;;;;;;;0.27;82.41;147394.53;5084637;28;20036;-67
2023/01/18 08:57:30;;;;;;;22.55;15.73;;;;;;;0.43;82.33;147433.94;5084948;28;20031;-67
2023/01/18 08:59:56;;;;;;;28.55;16.27;;;;;;;0.51;82.58;147455.63;5084741;28;20028;-68
2023/01/18 09:02:23;;;;;;;28.00;16.55;;;;;;;0.44;82.58;147437.81;5084277;28;20236;-68
2023/01/18 09:04:49;;;;;;;24.92;15.50;;;;;;;0.49;82.67;147449.25;5084504;28;20037;-67
2023/01/18 09:07:16;;;;;;;27.08;14.85;;;;;;;0.25;83.02;147389.47;5084383;28;20033;-66
2023/01/18 09:09:43;;;;;;;27.60;17.67;;;;;;;0.52;82.98;147458.13;5084651;28;20332;-68
2023/01/18 09:12:10;;;;;;;30.80;17.85;;;;;;;0.55;83.10;147463.25;5084498;28;20324;-67
2023/01/18 09:14:35;;;;;;;26.77;16.88;;;;;;;0.59;83.34;147473.44;5082916;28;20244;-67
2023/01/18 09:17:01;;;;;;;26.92;17.13;;;;;;;0.48;83.62;147446.69;5084015;28;20055;-67
2023/01/18 09:19:26;;;;;;;26.85;17.35;;;;;;;0.59;83.35;147473.44;5083072;28;20028;-69
2023/01/18 09:21:52;;;;;;;27.67;17.15;;;;;;;0.68;82.84;147496.28;5065781;28;20122;-69
2023/01/18 09:24:18;;;;;;;27.23;17.38;;;;;;;0.75;83.34;147514.09;5084233;28;20198;-68
2023/01/18 09:26:45;;;;;;;29.40;17.17;;;;;;;0.68;83.23;147497.59;5084115;28;20070;-67
2023/01/18 09:29:10;;;;;;;33.35;17.83;;;;;;;0.85;83.42;147539.53;5073106;28;20029;-67
2023/01/18 09:31:36;;;;;;;26.45;17.30;;;;;;;0.83;83.55;147533.22;5075512;28;20062;-67
2023/01/18 09:34:01;;;;;;;31.63;16.88;;;;;;;0.75;83.64;147512.84;5084079;28;20272;-67
2023/01/18 09:36:28;;;;;;;30.42;17.85;;;;;;;0.69;84.32;147498.84;5083699;28;20091;-68
2023/01/18 09:38:54;;;;;;;31.13;18.55;;;;;;;0.52;85.25;147456.88;5083647;28;20119;-67
2023/01/18 09:41:31;;;;;;;31.00;19.00;;;;;;;0.81;85.07;147528.09;5083354;28;20102;-68
2023/01/18 09:44:20;;;;;;;31.73;18.42;;;;;;;0.83;84.75;147533.22;5064787;28;20033;-68
2023/01/18 09:46:50;;;;;;;28.15;18.33;;;;;;;0.94;84.47;147559.91;5079840;28;20036;-68
2023/01/18 09:49:40;;;;;;;33.72;19.75;;;;;;;0.85;84.42;147538.28;5083571;28;20025;-68
2023/01/18 09:52:51;;;;;;;32.30;19.48;;;;;;;0.78;85.71;147521.72;5083614;28;20074;-67
2023/01/18 09:55:40;;;;;;;33.05;18.35;;;;;;;0.64;86.39;147487.41;5068468;28;20063;-67
2023/01/18 09:58:12;;;;;;;28.63;16.38;;;;;;;0.41;86.96;147430.16;5083521;28;20178;-68
2023/01/18 10:00:45;;;;;;;30.45;18.67;;;;;;;0.63;86.27;147484.88;5072903;28;20032;-67
2023/01/18 10:03:23;;;;;;;31.52;18.42;;;;;;;0.72;86.06;147506.47;5077403;28;20296;-67
2023/01/18 10:06:07;;;;;;;33.35;18.90;;;;;;;0.76;85.92;147516.66;5082663;28;20054;-67
2023/01/18 10:08:45;;;;;;;29.27;16.98;;;;;;;0.67;85.99;147495.03;5082672;28;20032;-68
2023/01/18 10:11:19;;;;;;;27.83;18.33;;;;;;;0.66;86.29;147491.22;5083184;28;20044;-67
2023/01/18 10:14:21;;;;;;;28.20;17.83;;;;;;;1.01;85.38;147577.72;5081455;28;20016;-68
2023/01/18 10:17:01;;;;;;;27.95;17.83;;;;;;;0.64;85.43;147487.41;5003248;28;20060;-68
2023/01/18 10:19:30;;;;;;;27.20;17.00;;;;;;;0.68;85.38;147496.28;5081032;28;20040;-67
2023/01/18 10:22:23;;;;;;;28.35;17.73;;;;;;;0.83;85.04;147533.22;5067491;28;20050;-67
2023/01/18 10:25:13;;;;;;;32.60;18.80;;;;;;;0.85;84.99;147539.53;5082762;28;20082;-68
2023/01/18 10:28:05;;;;;;;25.92;17.23;;;;;;;0.81;85.07;147529.41;5071914;28;20031;-68
2023/01/18 10:30:31;;;;;;;29.30;17.88;;;;;;;0.71;85.51;147503.91;5054018;28;20040;-67
2023/01/18 10:33:02;;;;;;;27.58;16.80;;;;;;;0.71;85.11;147503.91;5083166;28;20109;-68
2023/01/18 10:35:35;;;;;;;31.55;17.08;;;;;;;0.68;85.14;147496.28;5082333;28;20039;-68
2023/01/18 10:38:10;;;;;;;31.42;17.35;;;;;;;0.58;85.01;147470.88;5079514;28;20024;-67
2023/01/18 10:40:38;;;;;;;25.80;16.17;;;;;;;0.63;85.22;147484.88;5079823;28;20082;-67
2023/01/18 10:43:14;;;;;;;26.88;17.45;;;;;;;0.84;85.02;147535.72;5082261;28;20092;-68
2023/01/18 10:45:40;;;;;;;28.52;16.65;;;;;;;0.54;85.25;147460.69;5080903;28;20137;-67
2023/01/18 10:48:17;;;;;;;25.95;15.98;;;;;;;0.82;84.14;147531.91;5080326;28;20025;-67
2023/01/18 10:50:47;;;;;;;25.63;16.27;;;;;;;0.57;84.99;147469.63;5077371;28;20028;-67
2023/01/18 10:53:32;;;;;;;31.98;17.48;;;;;;;0.89;84.43;147547.22;5075498;28;20037;-67
2023/01/18 10:56:17;;;;;;;28.52;17.17;;;;;;;0.97;84.60;147568.84;5080492;28;20087;-67
2023/01/18 10:58:51;;;;;;;25.85;17.00;;;;;;;0.71;84.84;147503.91;5082688;28;20097;-68
2023/01/18 11:01:29;;;;;;;26.65;16.48;;;;;;;0.69;85.55;147498.84;5076386;28;20035;-67
2023/01/18 11:04:07;;;;;;;27.50;17.25;;;;;;;0.55;85.85;147463.25;5058716;28;20348;-67
2023/01/18 11:06:52;;;;;;;30.48;16.75;;;;;;;0.64;85.76;147486.13;5068564;28;20420;-67
2023/01/18 11:09:36;;;;;;;31.80;17.88;;;;;;;0.83;85.84;147533.22;5079772;28;20026;-66
2023/01/18 11:14:55;;;;;;;30.65;18.05;;;;;;;0.65;86.51;147488.69;5071260;28;20091;-67
2023/01/18 11:17:21;;;;;;;32.03;18.52;;;;;;;0.81;86.51;147529.41;5081795;28;20029;-66
2023/01/18 11:20:04;;;;;;;34.13;17.75;;;;;;;0.64;87.00;147486.13;5065338;28;20056;-67
2023/01/18 11:22:32;;;;;;;29.75;17.92;;;;;;;0.75;86.60;147512.84;5075380;28;20025;-67
2023/01/18 11:24:58;;;;;;;30.67;18.50;;;;;;;0.76;86.78;147516.66;5080800;28;20083;-68
2023/01/18 11:27:24;;;;;;;35.75;19.58;;;;;;;0.74;87.28;147511.59;5070664;28;20027;-67
2023/01/18 11:29:50;;;;;;;28.30;19.15;;;;;;;0.77;87.59;147517.91;5072733;28;20033;-68
2023/01/18 11:32:27;;;;;;;33.22;19.92;;;;;;;0.64;87.36;147486.13;5072410;28;20316;-67
2023/01/18 11:34:56;;;;;;;34.88;18.85;;;;;;;0.79;87.23;147524.28;5076261;28;20051;-68
2023/01/18 11:37:39;;;;;;;31.23;19.20;;;;;;;0.92;86.88;147554.84;5074929;28;20037;-68
2023/01/18 11:40:27;;;;;;;28.33;17.50;;;;;;;0.79;87.42;147524.28;5083212;28;20062;-67
2023/01/18 11:43:02;;;;;;;30.70;18.30;;;;;;;0.64;87.84;147486.13;5084395;28;20037;-67
2023/01/18 11:45:39;;;;;;;31.50;18.75;;;;;;;0.88;87.12;147545.91;5079774;28;20067;-67
2023/01/18 11:48:25;;;;;;;32.45;18.40;;;;;;;0.92;87.10;147554.84;5082094;28;20164;-67
2023/01/18 11:50:56;;;;;;;27.88;18.35;;;;;;;0.79;87.14;147523.03;5084713;28;20035;-68
2023/01/18 11:53:54;;;;;;;27.73;18.20;;;;;;;0.82;86.57;147531.91;5082333;28;20055;-68
2023/01/18 11:56:32;;;;;;;30.08;16.95;;;;;;;0.60;86.76;147475.94;5050882;28;20107;-67
2023/01/18 11:59:00;;;;;;;25.88;17.13;;;;;;;0.68;86.24;147497.59;5063561;28;20217;-67
2023/01/18 12:01:35;;;;;;;24.27;16.83;;;;;;;0.58;87.02;147472.13;5078797;28;20204;-67
2023/01/18 12:04:19;;;;;;;27.77;16.75;;;;;;;0.64;86.64;147486.13;5075773;28;20128;-67